KCCB/CCB METAR and TAF weather

Enter ICAO airport designator
Station Type Date Time Source
KCCB METAR 2020/09/23 18:55 UTC NOAA

KCCB 231855Z AUTO 24005KT 10SM CLR 28/11 A3005 RMK AO2


Station Type Date Time Source
KCCB Decoded METAR 2020/09/23 18:55 UTC NOAA

Station name not available
Sep 23, 2020 - 02:55 PM EDT / 2020.09.23 1855 UTC
Wind: from the WSW (240 degrees) at 6 MPH (5 KT):0
Visibility: 10 mile(s):0
Sky conditions: clear
Temperature: 82 F (28 C)
Dew Point: 51 F (11 C)
Relative Humidity: 34%
Pressure (altimeter): 30.05 in. Hg (1017 hPa)
ob: KCCB 231855Z AUTO 24005KT 10SM CLR 28/11 A3005 RMK AO2
cycle: 19

Station Type Date Time Source
KCCB TAF UTC NOAA

Error!

Example: see airport list